Time;durP1;ratioP1;P1;durP2;ratioP2;P2;SDS_P1;SDS_P2;PMS_P1;PMS_P2;Temp;Humidity;BMP_temperature;BMP_pressure;BME280_temperature;BME280_humidity;BME280_pressure;Samples;Min_cycle;Max_cycle;Signal;HPM_P1;HPM_P2
2023/12/02 00:00:07;;;;;;;11.90;4.95;;;16.50;99.90;;;;;;5025030;28;20026;-81
2023/12/02 00:02:37;;;;;;;12.75;4.10;;;16.80;99.90;;;;;;5037814;28;20056;-77
2023/12/02 00:05:03;;;;;;;15.98;4.28;;;17.00;99.90;;;;;;5040742;28;20037;-78
2023/12/02 00:07:29;;;;;;;15.95;4.05;;;17.20;99.90;;;;;;5041664;28;20021;-80
2023/12/02 00:09:55;;;;;;;13.80;4.55;;;17.20;99.90;;;;;;5042973;28;20101;-83
2023/12/02 00:12:21;;;;;;;13.95;4.97;;;17.20;99.90;;;;;;5037251;28;20547;-80
2023/12/02 00:14:47;;;;;;;17.45;5.97;;;17.30;99.90;;;;;;5038770;28;20022;-81
2023/12/02 00:17:13;;;;;;;17.48;5.60;;;17.30;99.90;;;;;;5040832;28;20376;-78
2023/12/02 00:19:39;;;;;;;13.90;4.78;;;17.30;99.90;;;;;;5043035;28;20450;-73
2023/12/02 00:22:06;;;;;;;10.13;3.95;;;17.30;99.90;;;;;;5042991;28;20060;-77
2023/12/02 00:24:32;;;;;;;10.88;4.60;;;17.20;99.90;;;;;;5042522;28;20079;-82
2023/12/02 00:26:58;;;;;;;21.08;5.32;;;17.20;99.90;;;;;;5046537;28;20017;-82
2023/12/02 00:29:24;;;;;;;12.20;4.57;;;17.20;99.90;;;;;;5023157;28;20048;-80
2023/12/02 00:31:50;;;;;;;14.65;5.32;;;17.20;99.90;;;;;;5040046;28;20022;-82
2023/12/02 00:34:16;;;;;;;13.02;5.20;;;17.10;99.90;;;;;;5041561;28;20075;-79
2023/12/02 00:36:48;;;;;;;17.80;6.75;;;17.00;99.90;;;;;;5042117;28;20021;-79
2023/12/02 00:39:14;;;;;;;19.13;6.57;;;16.90;99.90;;;;;;5039157;28;20040;-81
2023/12/02 00:41:41;;;;;;;15.23;5.50;;;16.90;99.90;;;;;;5037275;28;20033;-80
2023/12/02 00:44:07;;;;;;;15.52;6.50;;;16.80;99.90;;;;;;5037197;28;20041;-79
2023/12/02 00:46:32;;;;;;;16.98;8.25;;;16.70;99.90;;;;;;5036779;28;20028;-81
2023/12/02 00:48:58;;;;;;;21.75;8.95;;;16.70;99.90;;;;;;5036646;28;20036;-81
2023/12/02 00:51:24;;;;;;;15.02;7.38;;;16.70;99.90;;;;;;5036350;28;20412;-80
2023/12/02 00:53:50;;;;;;;17.08;6.55;;;16.70;99.90;;;;;;5036875;28;20041;-80
2023/12/02 00:56:17;;;;;;;15.55;6.32;;;16.60;99.90;;;;;;5037067;28;20044;-79
2023/12/02 00:58:42;;;;;;;16.83;5.97;;;16.60;99.90;;;;;;5019102;28;20046;-81
2023/12/02 01:01:09;;;;;;;19.42;6.63;;;16.50;99.90;;;;;;5036608;28;20067;-81
2023/12/02 01:03:35;;;;;;;14.15;4.95;;;16.60;99.90;;;;;;5035476;28;20539;-80
2023/12/02 01:06:01;;;;;;;12.32;4.40;;;16.60;99.90;;;;;;5037728;28;20018;-79
2023/12/02 01:08:27;;;;;;;15.38;4.15;;;16.70;99.90;;;;;;5035350;28;20029;-80
2023/12/02 01:10:53;;;;;;;8.77;3.83;;;16.90;99.90;;;;;;5037077;28;20080;-79
2023/12/02 01:13:18;;;;;;;9.40;3.33;;;17.00;99.90;;;;;;5042708;28;20059;-79
2023/12/02 01:15:44;;;;;;;13.48;4.07;;;17.10;99.90;;;;;;5040137;28;20400;-80
2023/12/02 01:18:10;;;;;;;8.52;3.58;;;17.30;99.90;;;;;;5036780;28;20029;-78
2023/12/02 01:20:37;;;;;;;10.98;3.67;;;17.40;99.90;;;;;;5041426;28;20354;-76
2023/12/02 01:23:03;;;;;;;9.98;3.20;;;17.40;99.90;;;;;;5040795;28;20025;-76
2023/12/02 01:25:29;;;;;;;11.18;4.25;;;17.40;99.90;;;;;;5042025;28;20037;-81
2023/12/02 01:27:55;;;;;;;11.32;3.63;;;17.40;99.90;;;;;;5039354;28;20094;-78
2023/12/02 01:30:21;;;;;;;9.88;3.45;;;17.40;99.90;;;;;;5041009;28;20048;-81
2023/12/02 01:32:47;;;;;;;8.90;3.10;;;17.40;99.90;;;;;;5040063;28;20029;-81
2023/12/02 01:35:12;;;;;;;8.68;3.38;;;17.60;99.90;;;;;;5043468;28;20025;-81
2023/12/02 01:37:38;;;;;;;7.00;2.47;;;17.60;99.90;;;;;;5043361;28;20029;-78
2023/12/02 01:40:05;;;;;;;11.68;2.40;;;17.70;99.90;;;;;;5043808;28;20052;-80
2023/12/02 01:42:31;;;;;;;8.73;2.75;;;17.70;99.90;;;;;;5036513;28;20034;-82
2023/12/02 01:44:57;;;;;;;8.98;3.63;;;17.70;99.90;;;;;;5032546;28;20516;-77
2023/12/02 01:47:22;;;;;;;16.83;6.75;;;17.80;99.90;;;;;;5034196;28;20017;-80
2023/12/02 01:49:50;;;;;;;10.52;3.42;;;17.60;99.90;;;;;;5033297;28;20029;-76
2023/12/02 01:52:16;;;;;;;6.47;3.10;;;17.50;99.90;;;;;;5036300;28;20029;-80
2023/12/02 01:54:43;;;;;;;10.77;3.22;;;17.50;99.90;;;;;;5036858;28;20100;-81
2023/12/02 01:57:10;;;;;;;15.35;6.70;;;17.50;99.90;;;;;;5034385;28;20017;-82
2023/12/02 01:59:43;;;;;;;13.98;4.70;;;17.40;99.90;;;;;;5035437;28;20386;-80
2023/12/02 02:02:09;;;;;;;12.50;3.92;;;17.40;99.90;;;;;;5037696;28;20056;-81
2023/12/02 02:04:35;;;;;;;12.07;3.65;;;17.40;99.90;;;;;;5036620;28;20473;-79
2023/12/02 02:10:45;;;;;;;9.68;3.58;;;17.40;99.90;;;;;;4954081;23;20616;-80
2023/12/02 02:13:11;;;;;;;10.27;3.65;;;17.40;99.90;;;;;;4980892;28;20129;-81
2023/12/02 02:15:37;;;;;;;11.73;5.32;;;17.30;99.90;;;;;;4977832;28;20026;-76
2023/12/02 02:18:03;;;;;;;16.17;7.13;;;17.20;99.90;;;;;;4981434;28;20151;-79
2023/12/02 02:20:29;;;;;;;20.15;9.43;;;17.10;99.90;;;;;;4945140;28;20541;-81
2023/12/02 02:22:54;;;;;;;18.10;7.45;;;17.00;99.90;;;;;;4985701;28;20045;-81
2023/12/02 02:25:20;;;;;;;13.30;5.05;;;16.90;99.90;;;;;;4961405;28;20042;-81
2023/12/02 02:27:46;;;;;;;16.42;6.55;;;16.70;99.90;;;;;;4977124;28;20062;-81
2023/12/02 02:30:13;;;;;;;16.67;5.00;;;16.70;99.90;;;;;;4960254;28;20363;-80
2023/12/02 02:32:39;;;;;;;20.85;8.15;;;16.60;99.90;;;;;;4979491;28;20027;-81
2023/12/02 02:35:05;;;;;;;21.85;6.60;;;16.50;99.90;;;;;;4985856;28;20090;-82
2023/12/02 02:37:31;;;;;;;16.35;5.72;;;16.50;99.90;;;;;;4988450;28;20038;-81
2023/12/02 02:39:57;;;;;;;28.73;10.68;;;16.50;99.90;;;;;;4986790;28;20039;-79
2023/12/02 02:42:23;;;;;;;20.20;4.93;;;16.40;99.90;;;;;;4982411;28;20031;-76
2023/12/02 02:44:49;;;;;;;14.48;4.85;;;16.40;99.90;;;;;;4979627;28;20109;-81
2023/12/02 02:47:14;;;;;;;17.92;4.63;;;16.30;99.90;;;;;;4979438;28;20174;-81
2023/12/02 02:49:40;;;;;;;15.15;4.13;;;16.30;99.90;;;;;;4982496;28;20030;-76
2023/12/02 02:52:06;;;;;;;23.08;7.63;;;16.40;99.90;;;;;;4983449;28;20031;-81
2023/12/02 02:54:32;;;;;;;15.50;5.57;;;16.40;99.90;;;;;;4980168;28;20034;-81
2023/12/02 02:56:58;;;;;;;21.48;6.38;;;16.40;99.90;;;;;;4980171;28;20538;-81
2023/12/02 02:59:24;;;;;;;14.13;4.75;;;16.40;99.90;;;;;;4985885;28;20058;-74
2023/12/02 03:01:50;;;;;;;14.63;3.53;;;16.40;99.90;;;;;;4964074;28;20027;-81
2023/12/02 03:04:16;;;;;;;22.48;6.95;;;16.40;99.90;;;;;;4971504;28;20038;-77
2023/12/02 03:06:42;;;;;;;9.60;3.72;;;16.30;99.90;;;;;;4982256;28;20035;-78
2023/12/02 03:09:11;;;;;;;15.60;4.32;;;16.40;99.90;;;;;;4990046;28;20031;-80
2023/12/02 03:11:37;;;;;;;13.32;3.90;;;16.40;99.90;;;;;;4961140;28;20053;-77
2023/12/02 03:14:03;;;;;;;17.88;7.20;;;16.40;99.90;;;;;;4978540;28;20027;-81
2023/12/02 03:16:29;;;;;;;22.40;8.80;;;16.30;99.90;;;;;;4979236;28;20019;-81
2023/12/02 03:18:54;;;;;;;10.10;4.57;;;16.30;99.90;;;;;;4960224;28;20049;-81
2023/12/02 03:21:20;;;;;;;12.40;4.43;;;16.30;99.90;;;;;;4976925;28;20381;-81
2023/12/02 03:23:49;;;;;;;10.63;4.30;;;16.40;99.90;;;;;;4975839;28;20055;-77
2023/12/02 03:26:16;;;;;;;20.58;4.82;;;16.60;99.90;;;;;;4976915;28;20351;-78
2023/12/02 03:28:42;;;;;;;13.18;3.58;;;16.60;99.90;;;;;;4958944;28;20109;-75
2023/12/02 03:31:09;;;;;;;12.30;3.75;;;16.60;99.90;;;;;;4960070;28;20051;-82
2023/12/02 03:33:35;;;;;;;20.63;7.40;;;16.50;99.90;;;;;;4992527;28;20035;-78
2023/12/02 03:36:01;;;;;;;20.27;5.55;;;16.40;99.90;;;;;;4977187;28;20031;-81
2023/12/02 03:38:27;;;;;;;13.50;5.43;;;16.30;99.90;;;;;;4979224;28;20018;-80
2023/12/02 03:40:53;;;;;;;14.60;4.82;;;16.30;99.90;;;;;;4981339;28;20042;-75
2023/12/02 03:43:18;;;;;;;15.15;4.75;;;16.20;99.90;;;;;;4977997;28;20505;-79
2023/12/02 03:45:44;;;;;;;12.32;3.92;;;16.20;99.90;;;;;;4960297;28;20465;-80
2023/12/02 03:48:10;;;;;;;11.18;3.90;;;16.20;99.90;;;;;;4978526;28;20030;-81
2023/12/02 03:50:36;;;;;;;9.52;3.78;;;16.20;99.90;;;;;;4979458;28;20038;-81
2023/12/02 03:53:02;;;;;;;13.27;3.95;;;16.20;99.90;;;;;;4978009;28;20053;-81
2023/12/02 03:55:28;;;;;;;14.45;4.18;;;16.30;99.90;;;;;;4980281;28;20048;-81
2023/12/02 03:57:54;;;;;;;11.50;3.35;;;16.20;99.90;;;;;;4980273;28;20051;-81
2023/12/02 04:00:21;;;;;;;18.00;4.72;;;16.20;99.90;;;;;;4978319;28;20110;-82
2023/12/02 04:02:47;;;;;;;11.23;3.03;;;16.20;99.90;;;;;;4978699;28;20557;-78
2023/12/02 04:05:13;;;;;;;16.80;4.68;;;16.20;99.90;;;;;;4978721;28;20066;-80
2023/12/02 04:07:39;;;;;;;13.95;5.38;;;16.20;99.90;;;;;;4961822;28;20035;-81
2023/12/02 04:10:06;;;;;;;16.95;6.65;;;16.20;99.90;;;;;;4962540;28;20058;-82
2023/12/02 04:12:34;;;;;;;17.08;5.78;;;16.20;99.90;;;;;;4980771;28;20023;-79
2023/12/02 04:15:00;;;;;;;14.32;5.10;;;16.20;99.90;;;;;;4979176;28;20381;-82
2023/12/02 04:17:26;;;;;;;18.63;7.97;;;16.20;99.90;;;;;;4979070;28;20196;-81
2023/12/02 04:19:52;;;;;;;30.83;13.70;;;16.20;99.90;;;;;;4977917;28;20035;-81
2023/12/02 04:22:19;;;;;;;32.15;14.02;;;16.10;99.90;;;;;;4976691;28;20041;-79
2023/12/02 04:24:46;;;;;;;19.38;9.25;;;16.10;99.90;;;;;;4975486;28;20050;-79
2023/12/02 04:27:12;;;;;;;15.48;5.43;;;16.00;99.90;;;;;;4958646;28;20482;-80
2023/12/02 04:29:41;;;;;;;14.25;4.60;;;16.00;99.90;;;;;;4957428;28;20027;-81
2023/12/02 04:32:08;;;;;;;11.38;5.22;;;16.00;99.90;;;;;;4974993;28;20031;-78
2023/12/02 04:34:34;;;;;;;13.80;4.10;;;16.00;99.90;;;;;;4974364;28;20082;-81
2023/12/02 04:37:01;;;;;;;19.73;4.65;;;16.10;99.90;;;;;;4974784;28;20019;-80
2023/12/02 04:39:27;;;;;;;18.75;4.95;;;16.30;99.90;;;;;;4974381;28;20035;-81
2023/12/02 04:41:53;;;;;;;12.65;3.53;;;16.40;99.90;;;;;;4974949;28;20026;-81
2023/12/02 04:44:20;;;;;;;12.05;3.42;;;16.50;99.90;;;;;;4974440;28;20114;-81
2023/12/02 04:46:46;;;;;;;18.15;4.63;;;16.50;99.90;;;;;;4957328;28;20552;-81
2023/12/02 04:49:12;;;;;;;10.27;3.42;;;16.50;99.90;;;;;;4957321;28;20501;-81
2023/12/02 04:51:38;;;;;;;9.15;3.40;;;16.50;99.90;;;;;;4974334;28;20062;-81
2023/12/02 04:54:04;;;;;;;14.35;5.35;;;16.50;99.90;;;;;;4974609;28;20541;-81
2023/12/02 04:56:30;;;;;;;14.75;4.10;;;16.50;99.90;;;;;;4974342;28;20110;-79
2023/12/02 04:58:56;;;;;;;13.07;3.60;;;16.50;99.90;;;;;;4975260;28;20031;-82
2023/12/02 05:01:22;;;;;;;11.50;3.58;;;16.40;99.90;;;;;;4975145;28;20019;-81
2023/12/02 05:03:48;;;;;;;10.68;2.92;;;16.40;99.90;;;;;;4974040;28;20031;-81
2023/12/02 05:06:15;;;;;;;21.02;3.85;;;16.40;99.90;;;;;;4974053;28;20034;-80
2023/12/02 05:08:41;;;;;;;11.68;2.58;;;16.40;99.90;;;;;;4973994;28;20073;-81
2023/12/02 05:11:08;;;;;;;22.75;3.75;;;16.40;99.90;;;;;;4973925;28;20058;-81
2023/12/02 05:13:34;;;;;;;13.48;3.45;;;16.40;99.90;;;;;;4988686;28;20398;-80
2023/12/02 05:15:59;;;;;;;27.77;6.38;;;16.30;99.90;;;;;;4974079;28;20033;-77
2023/12/02 05:18:25;;;;;;;17.27;5.50;;;16.20;99.90;;;;;;4974064;28;20093;-74
2023/12/02 05:20:51;;;;;;;24.25;8.05;;;16.20;99.90;;;;;;4956676;28;20030;-74
2023/12/02 05:23:17;;;;;;;22.80;8.27;;;16.20;99.90;;;;;;4973678;28;20027;-80
2023/12/02 05:25:43;;;;;;;26.20;7.28;;;16.10;99.90;;;;;;4974061;28;20026;-80
2023/12/02 05:28:09;;;;;;;25.75;7.38;;;16.00;99.90;;;;;;4973697;28;20065;-80
2023/12/02 05:30:35;;;;;;;16.17;6.03;;;15.90;99.90;;;;;;4974415;28;20422;-81
2023/12/02 05:33:01;;;;;;;18.73;5.93;;;15.90;99.90;;;;;;4973849;28;20026;-81
2023/12/02 05:35:27;;;;;;;15.68;6.82;;;15.80;99.90;;;;;;4974046;28;20045;-79
2023/12/02 05:37:53;;;;;;;15.45;6.78;;;15.70;99.90;;;;;;4973419;28;20031;-82
2023/12/02 05:40:19;;;;;;;20.75;7.50;;;15.70;99.90;;;;;;4973721;28;20031;-79
2023/12/02 05:42:45;;;;;;;16.67;6.68;;;15.70;99.90;;;;;;4973899;28;20042;-81
2023/12/02 05:45:11;;;;;;;21.10;7.88;;;15.60;99.90;;;;;;4973622;28;20039;-80
2023/12/02 05:47:36;;;;;;;19.08;5.93;;;15.60;99.90;;;;;;4973469;28;20414;-81
2023/12/02 05:50:03;;;;;;;20.38;7.18;;;15.70;99.90;;;;;;4973379;28;20034;-79
2023/12/02 05:52:29;;;;;;;21.77;6.85;;;15.70;99.90;;;;;;4973468;28;20019;-80
2023/12/02 05:54:55;;;;;;;19.88;6.20;;;15.70;99.90;;;;;;4973262;28;20037;-81
2023/12/02 05:57:21;;;;;;;19.58;5.57;;;15.60;99.90;;;;;;4973399;28;20080;-77
2023/12/02 05:59:47;;;;;;;18.13;4.55;;;15.60;99.90;;;;;;4973626;28;20026;-77
2023/12/02 06:02:14;;;;;;;14.00;4.60;;;15.60;99.90;;;;;;4988065;28;20465;-80
2023/12/02 06:04:40;;;;;;;19.85;4.43;;;15.60;99.90;;;;;;4973180;28;20466;-80
2023/12/02 06:07:05;;;;;;;18.10;6.72;;;15.50;99.90;;;;;;4973195;28;20102;-79
2023/12/02 06:09:31;;;;;;;24.48;7.40;;;15.50;99.90;;;;;;4974589;28;20047;-80
2023/12/02 06:11:57;;;;;;;21.55;7.05;;;15.30;99.90;;;;;;4979434;28;20045;-80
2023/12/02 06:14:23;;;;;;;20.10;8.55;;;15.30;99.90;;;;;;4980019;28;20074;-81
2023/12/02 06:16:49;;;;;;;49.42;22.85;;;15.20;99.90;;;;;;4979453;28;20018;-79
2023/12/02 06:19:15;;;;;;;63.72;29.58;;;15.20;99.90;;;;;;4962100;28;20425;-81
2023/12/02 06:21:41;;;;;;;53.35;28.23;;;15.10;99.90;;;;;;4979320;28;20034;-79
2023/12/02 06:24:07;;;;;;;46.47;22.92;;;15.10;99.90;;;;;;4962309;28;20050;-77
2023/12/02 06:26:33;;;;;;;33.42;16.20;;;15.10;99.90;;;;;;4961348;28;20031;-77
2023/12/02 06:28:59;;;;;;;34.17;16.58;;;15.10;99.90;;;;;;4962010;28;20355;-81
2023/12/02 06:31:25;;;;;;;37.63;13.68;;;15.00;99.90;;;;;;4979376;28;20474;-80
2023/12/02 06:33:50;;;;;;;24.50;11.23;;;15.10;99.90;;;;;;4979388;28;20587;-80
2023/12/02 06:36:16;;;;;;;24.75;10.13;;;15.00;99.90;;;;;;4980009;28;20564;-74
2023/12/02 06:38:42;;;;;;;35.83;10.15;;;15.00;99.90;;;;;;4979234;28;20050;-80
2023/12/02 06:41:08;;;;;;;21.90;7.93;;;15.00;99.90;;;;;;4979051;28;20027;-73
2023/12/02 06:43:34;;;;;;;19.33;7.90;;;15.00;99.90;;;;;;4994412;28;20070;-79
2023/12/02 06:46:01;;;;;;;18.13;7.35;;;15.00;99.90;;;;;;4979328;28;20156;-80
2023/12/02 06:48:27;;;;;;;20.20;7.80;;;15.10;99.90;;;;;;4962192;28;20117;-80
2023/12/02 06:50:53;;;;;;;21.52;8.00;;;15.20;99.90;;;;;;4979605;28;20114;-81
2023/12/02 06:53:19;;;;;;;16.30;7.80;;;15.40;99.90;;;;;;4979149;28;20023;-78
2023/12/02 06:55:45;;;;;;;20.85;9.60;;;15.50;99.90;;;;;;4979173;28;20540;-79
2023/12/02 06:58:10;;;;;;;23.02;9.93;;;15.60;99.90;;;;;;4978882;28;20126;-79
2023/12/02 07:00:36;;;;;;;24.65;10.48;;;15.70;99.90;;;;;;4961208;28;20022;-80
2023/12/02 07:03:02;;;;;;;22.60;10.07;;;15.70;99.90;;;;;;4979255;28;20022;-80
2023/12/02 07:05:28;;;;;;;20.70;9.43;;;15.80;99.90;;;;;;4978893;28;20082;-74
2023/12/02 07:07:54;;;;;;;20.85;7.95;;;15.90;99.90;;;;;;4979260;28;20418;-79
2023/12/02 07:10:20;;;;;;;17.40;8.18;;;16.00;99.90;;;;;;4978598;28;20130;-79
2023/12/02 07:12:46;;;;;;;14.35;7.00;;;16.10;99.90;;;;;;4979387;28;20030;-80
2023/12/02 07:15:12;;;;;;;22.73;7.72;;;16.10;99.90;;;;;;4980060;28;20026;-80
2023/12/02 07:17:37;;;;;;;22.63;10.18;;;16.20;99.90;;;;;;4980467;28;20106;-80
2023/12/02 07:20:04;;;;;;;22.52;10.98;;;16.20;99.90;;;;;;4978892;28;20054;-79
2023/12/02 07:22:30;;;;;;;25.23;11.02;;;16.20;99.90;;;;;;4975372;28;20504;-80
2023/12/02 07:24:56;;;;;;;19.25;9.32;;;16.20;99.90;;;;;;4975690;28;20039;-81
2023/12/02 07:27:21;;;;;;;21.70;9.95;;;16.30;99.90;;;;;;4976040;28;20050;-80
2023/12/02 07:29:47;;;;;;;19.15;9.00;;;16.30;99.90;;;;;;4975946;28;20038;-80
2023/12/02 07:32:13;;;;;;;19.08;8.52;;;16.30;99.90;;;;;;4975726;28;20068;-80
2023/12/02 07:34:39;;;;;;;20.83;8.95;;;16.40;99.90;;;;;;4990531;28;20363;-78
2023/12/02 07:37:05;;;;;;;18.77;10.27;;;16.40;99.90;;;;;;4975550;28;20026;-78
2023/12/02 07:39:31;;;;;;;23.27;9.77;;;16.50;99.90;;;;;;4975357;28;20470;-79
2023/12/02 07:41:57;;;;;;;21.63;9.48;;;16.50;99.90;;;;;;4958227;28;20601;-79
2023/12/02 07:44:22;;;;;;;29.92;11.38;;;16.60;99.90;;;;;;4975301;28;20114;-81
2023/12/02 07:46:48;;;;;;;26.33;12.88;;;16.60;99.90;;;;;;4975907;28;20113;-81
2023/12/02 07:49:14;;;;;;;24.45;11.57;;;16.60;99.90;;;;;;4958002;28;20062;-81
2023/12/02 07:51:40;;;;;;;24.83;13.27;;;16.60;99.90;;;;;;4957850;28;20043;-82
2023/12/02 07:54:06;;;;;;;25.00;13.55;;;16.70;99.90;;;;;;4990148;28;20033;-82
2023/12/02 07:56:32;;;;;;;27.08;14.57;;;16.70;99.90;;;;;;4974001;28;20070;-82
2023/12/02 07:58:58;;;;;;;25.55;13.55;;;16.70;99.90;;;;;;4976695;28;20500;-78
2023/12/02 08:01:24;;;;;;;30.13;16.00;;;16.70;99.90;;;;;;4975500;28;20363;-80
2023/12/02 08:03:50;;;;;;;34.50;14.75;;;16.80;99.90;;;;;;4957445;28;20050;-80
2023/12/02 08:06:16;;;;;;;30.45;15.57;;;16.80;99.90;;;;;;4958785;28;20023;-82
2023/12/02 08:08:42;;;;;;;35.83;20.13;;;16.80;99.90;;;;;;4975251;28;20070;-82
2023/12/02 08:11:08;;;;;;;31.48;15.15;;;16.80;99.90;;;;;;4957735;28;20051;-80
2023/12/02 08:13:34;;;;;;;30.65;14.85;;;16.90;99.90;;;;;;4976344;28;20097;-78
2023/12/02 08:16:00;;;;;;;43.40;22.80;;;17.00;99.90;;;;;;4976148;28;20359;-82
2023/12/02 08:18:26;;;;;;;38.08;19.45;;;17.10;99.90;;;;;;4974780;28;20054;-82
2023/12/02 08:20:52;;;;;;;35.95;16.77;;;17.10;99.90;;;;;;4957975;28;20065;-75
2023/12/02 08:23:17;;;;;;;36.53;16.15;;;17.20;99.90;;;;;;4958333;28;20435;-81
2023/12/02 08:25:43;;;;;;;37.88;15.05;;;17.20;99.90;;;;;;4974921;28;20110;-81
2023/12/02 08:28:09;;;;;;;27.85;11.60;;;17.30;99.90;;;;;;4974596;28;20481;-82
2023/12/02 08:30:35;;;;;;;30.25;8.85;;;17.30;99.90;;;;;;4974591;28;20023;-81
2023/12/02 08:33:03;;;;;;;26.90;8.95;;;17.40;99.90;;;;;;4974457;28;20119;-80
2023/12/02 08:35:29;;;;;;;40.88;10.35;;;17.40;99.90;;;;;;4974801;28;20027;-79
2023/12/02 08:37:55;;;;;;;23.05;9.55;;;17.50;99.90;;;;;;4978323;28;20033;-79
2023/12/02 08:40:20;;;;;;;22.67;7.70;;;17.60;99.90;;;;;;4976578;28;20047;-76
2023/12/02 08:42:46;;;;;;;17.88;6.55;;;17.60;99.90;;;;;;4974508;28;20039;-81
2023/12/02 08:45:12;;;;;;;16.25;6.68;;;17.60;99.90;;;;;;4974522;28;20046;-79
2023/12/02 08:47:38;;;;;;;15.10;5.40;;;17.70;99.90;;;;;;4974228;28;20101;-81
2023/12/02 08:50:05;;;;;;;20.45;7.20;;;17.80;99.90;;;;;;4937626;29;20035;-81
2023/12/02 08:52:31;;;;;;;21.63;6.95;;;17.80;99.90;;;;;;4972104;28;20086;-79
2023/12/02 08:54:56;;;;;;;21.67;7.28;;;17.90;99.90;;;;;;4974566;28;20414;-81
2023/12/02 08:57:22;;;;;;;16.63;7.03;;;18.00;99.90;;;;;;4973828;28;20490;-75
2023/12/02 08:59:48;;;;;;;21.85;8.30;;;18.10;99.90;;;;;;4974802;28;20038;-82
2023/12/02 09:02:14;;;;;;;36.30;13.35;;;18.10;99.90;;;;;;4974051;28;20027;-77
2023/12/02 09:04:40;;;;;;;29.00;11.77;;;18.10;99.90;;;;;;4974178;28;20035;-81
2023/12/02 09:07:06;;;;;;;21.30;8.50;;;18.20;99.90;;;;;;4974005;28;20034;-79
2023/12/02 09:09:32;;;;;;;27.63;9.10;;;18.20;99.90;;;;;;4973870;28;20054;-77
2023/12/02 09:11:59;;;;;;;25.15;7.75;;;18.20;99.90;;;;;;4973566;28;20125;-78
2023/12/02 09:14:25;;;;;;;29.92;12.45;;;18.20;99.90;;;;;;4956650;28;20030;-77
2023/12/02 09:16:51;;;;;;;17.30;7.70;;;18.30;99.90;;;;;;4989007;28;20366;-75
2023/12/02 09:19:52;;;;;;;25.02;7.95;;;18.20;99.90;;;;;;4973772;28;20037;-78
2023/12/02 09:22:29;;;;;;;18.25;6.45;;;18.20;99.90;;;;;;4963603;28;20466;-81
2023/12/02 09:24:57;;;;;;;17.88;5.78;;;18.30;99.90;;;;;;4973839;28;20448;-81
2023/12/02 09:28:10;;;;;;;13.05;5.45;;;18.40;99.90;;;;;;4988836;28;20034;-76
2023/12/02 09:30:42;;;;;;;18.33;6.20;;;18.50;99.90;;;;;;4964571;28;20491;-80
2023/12/02 09:33:08;;;;;;;21.98;9.40;;;18.50;99.90;;;;;;4973671;28;20534;-80
2023/12/02 09:35:34;;;;;;;18.88;9.20;;;18.50;99.90;;;;;;4974387;28;20030;-80
2023/12/02 09:38:02;;;;;;;17.98;6.28;;;18.60;99.90;;;;;;4973256;28;20114;-82
2023/12/02 09:40:46;;;;;;;17.10;6.72;;;18.60;99.90;;;;;;4973377;28;20038;-80
2023/12/02 09:43:21;;;;;;;20.40;7.80;;;18.70;99.90;;;;;;4957429;28;20039;-77
2023/12/02 09:45:53;;;;;;;21.58;9.20;;;18.70;99.90;;;;;;4969124;28;20050;-82
2023/12/02 09:48:30;;;;;;;22.52;8.52;;;18.80;99.90;;;;;;4957709;28;20026;-79
2023/12/02 09:51:16;;;;;;;20.40;7.88;;;18.90;99.90;;;;;;4974572;28;20033;-81
2023/12/02 09:53:51;;;;;;;24.08;9.15;;;19.00;99.90;;;;;;4974716;28;20470;-81
2023/12/02 09:56:25;;;;;;;21.90;9.02;;;19.10;99.90;;;;;;4975164;28;20034;-77
2023/12/02 09:59:06;;;;;;;20.77;9.77;;;19.20;99.90;;;;;;4977187;28;20023;-81
2023/12/02 10:01:45;;;;;;;40.88;15.98;;;19.30;99.90;;;;;;4977417;28;20026;-80
2023/12/02 10:04:32;;;;;;;37.58;19.38;;;19.40;99.90;;;;;;4977633;28;20069;-81
2023/12/02 10:07:02;;;;;;;30.80;14.32;;;19.50;99.90;;;;;;4975366;28;20033;-81
2023/12/02 10:09:57;;;;;;;31.40;14.60;;;19.70;99.90;;;;;;4978407;28;20054;-80
2023/12/02 10:12:38;;;;;;;29.48;14.02;;;19.70;99.90;;;;;;4979430;28;20081;-81
2023/12/02 10:15:08;;;;;;;27.90;12.75;;;19.90;99.90;;;;;;4980758;28;20028;-79
2023/12/02 10:17:52;;;;;;;31.60;13.57;;;20.00;99.90;;;;;;4980214;28;20508;-75
2023/12/02 10:20:23;;;;;;;27.52;13.27;;;20.10;99.90;;;;;;4978697;28;20023;-80
2023/12/02 10:22:57;;;;;;;22.63;11.90;;;20.20;99.90;;;;;;4979046;28;20050;-75
2023/12/02 10:25:46;;;;;;;25.55;10.40;;;20.40;99.90;;;;;;4978696;28;20043;-82
2023/12/02 10:28:17;;;;;;;28.52;11.27;;;20.60;99.90;;;;;;4977188;28;20114;-78
2023/12/02 10:30:53;;;;;;;25.25;8.05;;;20.80;99.90;;;;;;4975248;28;20022;-81
2023/12/02 10:33:19;;;;;;;20.73;7.22;;;21.00;99.90;;;;;;4958572;28;20023;-80
2023/12/02 10:35:47;;;;;;;24.55;7.82;;;21.20;99.90;;;;;;4976048;28;20038;-81
2023/12/02 10:38:18;;;;;;;19.67;7.25;;;21.40;99.90;;;;;;4975225;28;20026;-81
2023/12/02 10:40:53;;;;;;;27.38;8.05;;;21.60;99.90;;;;;;4975162;28;20474;-79
2023/12/02 10:43:37;;;;;;;30.80;5.18;;;21.80;99.90;;;;;;4974624;28;20496;-75
2023/12/02 10:46:04;;;;;;;20.35;5.32;;;22.40;99.90;;;;;;4975908;28;20556;-81
2023/12/02 10:48:31;;;;;;;21.50;5.00;;;22.40;99.90;;;;;;4974445;28;20019;-81
2023/12/02 10:50:57;;;;;;;18.52;6.38;;;22.60;99.90;;;;;;4971774;28;20214;-82
2023/12/02 10:53:26;;;;;;;16.15;4.80;;;22.60;99.90;;;;;;4974578;28;20022;-81
2023/12/02 10:56:00;;;;;;;18.33;5.35;;;23.00;99.90;;;;;;4957242;28;20031;-81
2023/12/02 10:58:28;;;;;;;22.30;4.60;;;22.80;99.90;;;;;;4973752;28;20054;-80
2023/12/02 11:01:01;;;;;;;19.60;5.05;;;22.90;99.90;;;;;;4972293;28;20042;-81
2023/12/02 11:03:43;;;;;;;21.48;5.13;;;23.00;99.90;;;;;;4983189;28;20033;-74
2023/12/02 11:06:31;;;;;;;18.38;3.97;;;23.10;99.90;;;;;;4977454;28;20105;-82
2023/12/02 11:09:05;;;;;;;16.70;4.15;;;23.20;99.90;;;;;;4971033;28;20034;-74
2023/12/02 11:11:56;;;;;;;18.45;4.70;;;23.10;99.80;;;;;;4977292;28;20035;-80
2023/12/02 11:14:24;;;;;;;25.65;6.28;;;23.10;99.40;;;;;;4970869;28;20027;-75
2023/12/02 11:17:20;;;;;;;16.35;4.75;;;23.10;99.80;;;;;;4979104;28;20023;-81
2023/12/02 11:20:22;;;;;;;23.60;5.80;;;23.10;99.90;;;;;;4977769;28;20031;-79
2023/12/02 11:23:16;;;;;;;23.42;4.95;;;23.10;99.90;;;;;;4971874;28;20063;-73
2023/12/02 11:26:00;;;;;;;21.23;6.22;;;23.10;99.90;;;;;;4969957;28;20109;-79
2023/12/02 11:28:43;;;;;;;19.48;4.75;;;23.10;99.80;;;;;;4977489;28;20027;-78
2023/12/02 11:31:30;;;;;;;21.23;5.15;;;23.00;99.90;;;;;;4972767;28;20508;-78
2023/12/02 11:34:32;;;;;;;25.05;5.85;;;23.00;99.90;;;;;;4979715;28;20065;-78
2023/12/02 11:37:09;;;;;;;19.83;4.72;;;23.10;98.90;;;;;;4982198;28;20130;-74
2023/12/02 11:40:17;;;;;;;28.25;6.10;;;23.00;99.90;;;;;;4987974;28;20363;-79
2023/12/02 11:43:07;;;;;;;20.50;6.07;;;22.90;99.90;;;;;;4959100;28;20054;-75
2023/12/02 11:45:38;;;;;;;20.77;5.53;;;23.00;99.10;;;;;;4976245;28;20042;-81
2023/12/02 11:48:25;;;;;;;18.17;5.28;;;23.00;99.90;;;;;;4977977;28;20378;-79
2023/12/02 11:51:06;;;;;;;23.20;6.40;;;23.00;99.90;;;;;;4960064;28;20034;-77
2023/12/02 11:54:01;;;;;;;20.90;4.93;;;23.00;99.90;;;;;;4968793;28;20068;-82
2023/12/02 11:56:27;;;;;;;25.08;5.47;;;23.00;99.60;;;;;;4906971;29;20040;-77
2023/12/02 11:59:07;;;;;;;22.95;5.20;;;23.00;98.50;;;;;;4901509;29;20122;-79
2023/12/02 12:01:52;;;;;;;20.52;5.60;;;22.90;99.90;;;;;;4901266;29;20037;-79
2023/12/02 12:04:23;;;;;;;17.83;5.22;;;23.00;99.90;;;;;;4899934;29;20044;-80
2023/12/02 12:06:59;;;;;;;17.60;4.85;;;23.00;99.90;;;;;;4901235;29;20051;-77
2023/12/02 12:09:30;;;;;;;12.93;5.65;;;22.90;99.90;;;;;;4899846;29;20180;-79
2023/12/02 12:11:58;;;;;;;23.13;5.00;;;22.90;98.70;;;;;;4903927;29;20487;-78
2023/12/02 12:14:28;;;;;;;19.30;4.95;;;22.80;98.50;;;;;;4899696;29;20779;-78
2023/12/02 12:16:54;;;;;;;18.52;4.57;;;22.80;98.60;;;;;;4911010;29;20111;-74
2023/12/02 12:19:20;;;;;;;29.15;6.13;;;22.80;99.90;;;;;;4901330;29;20176;-82
2023/12/02 12:21:47;;;;;;;21.65;4.88;;;22.80;99.50;;;;;;4902206;29;20035;-82
2023/12/02 12:24:14;;;;;;;26.63;6.43;;;22.80;98.80;;;;;;4905908;29;20508;-79
2023/12/02 12:26:40;;;;;;;18.45;6.35;;;22.80;99.90;;;;;;4904375;29;20127;-75
2023/12/02 12:29:06;;;;;;;20.80;6.05;;;22.80;99.90;;;;;;4908321;29;20519;-74
2023/12/02 12:31:32;;;;;;;23.45;6.68;;;22.80;99.90;;;;;;4900203;29;20063;-80
2023/12/02 12:33:59;;;;;;;18.42;5.90;;;22.90;99.90;;;;;;4969123;28;20047;-79
2023/12/02 12:36:29;;;;;;;22.25;5.50;;;22.90;99.90;;;;;;4977924;28;20058;-83
2023/12/02 12:38:56;;;;;;;18.05;4.25;;;22.90;99.90;;;;;;4977820;28;20031;-81
2023/12/02 12:41:26;;;;;;;16.15;4.88;;;22.90;99.70;;;;;;4961276;28;20031;-78
2023/12/02 12:43:53;;;;;;;17.58;3.72;;;22.90;99.90;;;;;;4959431;28;20401;-76
2023/12/02 12:46:19;;;;;;;12.45;3.30;;;23.00;99.90;;;;;;4977569;28;20022;-79